Time;durP1;ratioP1;P1;durP2;ratioP2;P2;SDS_P1;SDS_P2;PMS_P1;PMS_P2;Temp;Humidity;BMP_temperature;BMP_pressure;BME280_temperature;BME280_humidity;BME280_pressure;Samples;Min_cycle;Max_cycle;Signal;HPM_P1;HPM_P2
2024/01/29 00:02:05;;;;;;;;;;;4.40;99.90;;;;;;5085584;28;19996;-79
2024/01/29 00:04:31;;;;;;;;;;;4.40;99.90;;;;;;5084975;28;19955;-78
2024/01/29 00:06:56;;;;;;;;;;;4.20;99.90;;;;;;5085282;28;19935;-79
2024/01/29 00:09:23;;;;;;;;;;;3.90;99.90;;;;;;5086943;28;19935;-79
2024/01/29 00:11:49;;;;;;;;;;;4.40;99.90;;;;;;5070848;28;19949;-79
2024/01/29 00:14:14;;;;;;;;;;;4.20;99.90;;;;;;5067187;28;19932;-79
2024/01/29 00:16:46;;;;;;;;;;;4.20;99.90;;;;;;5081999;28;19935;-79
2024/01/29 00:19:13;;;;;;;;;;;4.00;99.90;;;;;;5083779;28;19927;-78
2024/01/29 00:21:39;;;;;;;;;;;4.20;99.90;;;;;;5071233;28;20059;-79
2024/01/29 00:24:05;;;;;;;;;;;4.70;99.90;;;;;;5085716;28;19945;-78
2024/01/29 00:26:30;;;;;;;;;;;3.90;99.90;;;;;;5085349;28;20484;-79
2024/01/29 00:28:56;;;;;;;;;;;3.90;99.90;;;;;;5101135;28;19967;-79
2024/01/29 00:31:22;;;;;;;;;;;3.70;99.90;;;;;;5083922;28;19924;-77
2024/01/29 00:33:48;;;;;;;;;;;3.80;99.90;;;;;;5086543;28;19928;-77
2024/01/29 00:36:14;;;;;;;;;;;3.60;99.90;;;;;;5100905;28;19939;-78
2024/01/29 00:38:43;;;;;;;;;;;3.60;99.90;;;;;;5086167;28;19927;-77
2024/01/29 00:41:08;;;;;;;;;;;3.90;99.90;;;;;;5083074;28;19928;-77
2024/01/29 00:43:53;;;;;;;;;;;3.90;99.90;;;;;;5087980;27;19934;-77
2024/01/29 00:46:19;;;;;;;;;;;3.70;99.90;;;;;;5086475;28;19969;-77
2024/01/29 00:48:45;;;;;;;;;;;3.50;99.90;;;;;;5088907;28;19992;-77
2024/01/29 00:51:10;;;;;;;;;;;3.60;99.90;;;;;;5073039;28;19994;-75
2024/01/29 00:53:36;;;;;;;;;;;3.70;99.90;;;;;;5090489;28;19928;-77
2024/01/29 00:56:03;;;;;;;;;;;4.30;99.90;;;;;;5104670;28;20279;-77
2024/01/29 00:58:29;;;;;;;;;;;3.60;99.90;;;;;;5087587;28;19939;-78
2024/01/29 01:00:54;;;;;;;;;;;3.80;99.90;;;;;;5090532;28;19928;-78
2024/01/29 01:03:20;;;;;;;;;;;4.00;99.90;;;;;;5103587;27;19939;-78
2024/01/29 01:05:46;;;;;;;;;;;4.10;99.90;;;;;;5088593;28;20018;-77
2024/01/29 01:08:12;;;;;;;;;;;3.40;99.90;;;;;;5069784;28;19924;-77
2024/01/29 01:10:38;;;;;;;;;;;3.40;99.90;;;;;;5088278;28;19924;-77
2024/01/29 01:13:03;;;;;;;;;;;3.70;99.90;;;;;;5086789;28;19958;-78
2024/01/29 01:15:29;;;;;;;;;;;3.40;99.90;;;;;;5088131;28;19972;-76
2024/01/29 01:17:56;;;;;;;;;;;3.90;99.90;;;;;;5087832;28;19972;-78
2024/01/29 01:20:22;;;;;;;;;;;3.90;99.90;;;;;;5069612;28;19938;-78
2024/01/29 01:22:48;;;;;;;;;;;3.30;99.90;;;;;;5085844;27;19924;-77
2024/01/29 01:25:14;;;;;;;;;;;3.30;99.90;;;;;;5053596;28;20406;-78
2024/01/29 01:27:39;;;;;;;;;;;4.00;99.90;;;;;;5089167;28;19928;-78
2024/01/29 01:30:06;;;;;;;;;;;3.60;99.90;;;;;;5073161;28;20452;-78
2024/01/29 01:32:34;;;;;;;;;;;3.20;99.90;;;;;;5105115;27;19935;-78
2024/01/29 01:35:00;;;;;;;;;;;3.90;99.90;;;;;;5086486;28;19927;-77
2024/01/29 01:37:25;;;;;;;;;;;3.30;99.90;;;;;;5086670;28;20541;-77
2024/01/29 01:39:52;;;;;;;;;;;3.90;99.90;;;;;;5086081;28;20387;-77
2024/01/29 01:42:18;;;;;;;;;;;3.60;99.90;;;;;;5085872;28;20375;-77
2024/01/29 01:44:45;;;;;;;;;;;4.10;99.90;;;;;;5086794;28;19928;-77
2024/01/29 01:47:11;;;;;;;;;;;3.70;99.90;;;;;;5088288;28;20434;-75
2024/01/29 01:49:41;;;;;;;;;;;3.40;99.90;;;;;;5107144;28;19934;-77
2024/01/29 01:52:07;;;;;;;;;;;3.40;99.90;;;;;;5088599;28;19932;-77
2024/01/29 01:54:33;;;;;;;;;;;3.20;99.90;;;;;;5086340;28;20744;-77
2024/01/29 01:56:59;;;;;;;;;;;3.30;99.90;;;;;;5103331;28;19928;-77
2024/01/29 01:59:26;;;;;;;;;;;3.50;99.90;;;;;;5069100;28;20345;-77
2024/01/29 02:01:52;;;;;;;;;;;3.10;99.90;;;;;;5070636;28;19975;-77
2024/01/29 02:04:19;;;;;;;;;;;3.10;99.90;;;;;;5084153;28;19927;-77
2024/01/29 02:06:45;;;;;;;;;;;3.60;99.90;;;;;;5066412;27;19966;-78
2024/01/29 02:09:12;;;;;;;;;;;3.40;99.90;;;;;;5101471;28;19992;-77
2024/01/29 02:11:37;;;;;;;;;;;3.40;99.90;;;;;;5088288;28;19936;-78
2024/01/29 02:14:03;;;;;;;;;;;3.10;99.90;;;;;;5086402;28;19927;-77
2024/01/29 02:16:28;;;;;;;;;;;3.10;99.90;;;;;;5085759;28;20297;-77
2024/01/29 02:18:54;;;;;;;;;;;3.60;99.90;;;;;;5087545;28;19981;-77
2024/01/29 02:21:19;;;;;;;;;;;3.30;99.90;;;;;;5070341;28;20343;-77
2024/01/29 02:23:45;;;;;;;;;;;3.40;99.90;;;;;;5070077;27;20053;-77
2024/01/29 02:26:11;;;;;;;;;;;3.60;99.90;;;;;;5086876;28;20207;-77
2024/01/29 02:28:37;;;;;;;;;;;3.10;99.90;;;;;;5090622;28;19949;-77
2024/01/29 02:31:03;;;;;;;;;;;3.50;99.90;;;;;;5088249;28;19923;-77
2024/01/29 02:33:29;;;;;;;;;;;3.50;99.90;;;;;;5085977;28;20439;-77
2024/01/29 02:35:56;;;;;;;;;;;3.20;99.90;;;;;;5087148;28;19928;-77
2024/01/29 02:38:21;;;;;;;;;;;3.30;99.90;;;;;;5085540;28;19968;-77
2024/01/29 02:40:47;;;;;;;;;;;3.30;99.90;;;;;;5085274;28;19924;-77
2024/01/29 02:43:13;;;;;;;;;;;3.50;99.90;;;;;;5102820;28;19928;-77
2024/01/29 02:45:39;;;;;;;;;;;3.20;99.90;;;;;;5088106;28;19927;-77
2024/01/29 02:48:05;;;;;;;;;;;3.50;99.90;;;;;;5085137;28;20293;-77
2024/01/29 02:50:30;;;;;;;;;;;3.20;99.90;;;;;;5088341;28;19955;-77
2024/01/29 02:52:57;;;;;;;;;;;3.40;99.90;;;;;;5076837;28;19970;-77
2024/01/29 02:55:22;;;;;;;;;;;3.30;99.90;;;;;;5070379;28;19993;-77
2024/01/29 02:57:48;;;;;;;;;;;3.10;99.90;;;;;;5099612;28;19936;-78
2024/01/29 03:00:13;;;;;;;;;;;3.10;99.90;;;;;;5061107;28;19927;-77
2024/01/29 03:02:39;;;;;;;;;;;3.30;99.90;;;;;;5085244;28;19924;-78
2024/01/29 03:05:05;;;;;;;;;;;3.00;99.90;;;;;;5068278;28;19963;-77
2024/01/29 03:07:30;;;;;;;;;;;3.00;99.90;;;;;;5085624;28;19932;-77
2024/01/29 03:09:59;;;;;;;;;;;3.80;99.90;;;;;;5103368;27;19924;-78
2024/01/29 03:12:24;;;;;;;;;;;3.10;99.90;;;;;;5085543;28;19927;-78
2024/01/29 03:14:50;;;;;;;;;;;3.00;99.90;;;;;;5085584;28;19932;-78
2024/01/29 03:17:16;;;;;;;;;;;2.90;99.90;;;;;;5086449;28;19930;-77
2024/01/29 03:19:41;;;;;;;;;;;3.30;99.90;;;;;;5086676;28;19992;-77
2024/01/29 03:22:07;;;;;;;;;;;3.30;99.90;;;;;;5087364;28;19924;-77
2024/01/29 03:24:33;;;;;;;;;;;3.10;99.90;;;;;;5104911;28;20464;-77
2024/01/29 03:26:59;;;;;;;;;;;3.30;99.90;;;;;;5088210;28;19934;-77
2024/01/29 03:29:25;;;;;;;;;;;3.00;99.90;;;;;;5106653;28;20166;-77
2024/01/29 03:31:50;;;;;;;;;;;3.40;99.90;;;;;;5089116;28;19931;-76
2024/01/29 03:34:16;;;;;;;;;;;3.40;99.90;;;;;;5083240;28;19931;-77
2024/01/29 03:36:45;;;;;;;;;;;3.20;99.90;;;;;;5069230;28;21471;-77
2024/01/29 03:39:11;;;;;;;;;;;3.40;99.90;;;;;;5088483;28;19984;-77
2024/01/29 03:41:37;;;;;;;;;;;3.10;99.90;;;;;;5087029;28;19927;-77
2024/01/29 03:44:02;;;;;;;;;;;3.40;99.90;;;;;;5067226;28;19985;-77
2024/01/29 03:46:28;;;;;;;;;;;3.30;99.90;;;;;;5071075;28;20046;-77
2024/01/29 03:48:54;;;;;;;;;;;3.50;99.90;;;;;;5082602;28;19927;-78
2024/01/29 03:51:19;;;;;;;;;;;3.40;99.90;;;;;;5101814;28;20390;-77
2024/01/29 03:53:46;;;;;;;;;;;3.30;99.90;;;;;;5069538;28;19966;-77
2024/01/29 03:56:12;;;;;;;;;;;3.40;99.90;;;;;;5086718;28;20276;-77
2024/01/29 03:58:37;;;;;;;;;;;3.10;99.90;;;;;;5068560;28;19936;-78
2024/01/29 04:01:03;;;;;;;;;;;3.30;99.90;;;;;;5087240;28;19928;-78
2024/01/29 04:03:29;;;;;;;;;;;3.50;99.90;;;;;;5103173;28;20381;-78
2024/01/29 04:05:54;;;;;;;;;;;3.30;99.90;;;;;;5099881;28;20030;-77
2024/01/29 04:08:21;;;;;;;;;;;3.40;99.90;;;;;;5086468;28;19991;-78
2024/01/29 04:10:47;;;;;;;;;;;3.60;99.90;;;;;;5085018;28;19984;-79
2024/01/29 04:13:12;;;;;;;;;;;3.30;99.90;;;;;;5064397;28;19923;-78
2024/01/29 04:15:38;;;;;;;;;;;3.40;99.90;;;;;;5085170;28;20322;-78
2024/01/29 04:18:04;;;;;;;;;;;3.60;99.90;;;;;;5069058;28;19931;-77
2024/01/29 04:20:29;;;;;;;;;;;3.30;99.90;;;;;;5105252;28;19963;-78
2024/01/29 04:22:55;;;;;;;;;;;3.60;99.90;;;;;;5088722;28;20011;-78
2024/01/29 04:25:21;;;;;;;;;;;3.30;99.90;;;;;;5071719;28;19931;-78
2024/01/29 04:27:47;;;;;;;;;;;3.20;99.90;;;;;;5086472;28;20365;-78
2024/01/29 04:30:13;;;;;;;;;;;3.30;99.90;;;;;;5105969;28;19924;-78
2024/01/29 04:32:38;;;;;;;;;;;3.60;99.90;;;;;;5104345;28;19995;-78
2024/01/29 04:35:04;;;;;;;;;;;3.40;99.90;;;;;;5070804;28;20061;-77
2024/01/29 04:37:30;;;;;;;;;;;3.50;99.90;;;;;;5089379;28;19928;-78
2024/01/29 04:39:55;;;;;;;;;;;3.50;99.90;;;;;;5072404;28;20449;-78
2024/01/29 04:42:21;;;;;;;;;;;3.50;99.90;;;;;;5071868;28;20064;-78
2024/01/29 04:44:46;;;;;;;;;;;3.40;99.90;;;;;;5088885;28;19930;-78
2024/01/29 04:47:12;;;;;;;;;;;3.50;99.90;;;;;;5090282;28;19979;-78
2024/01/29 04:49:38;;;;;;;;;;;3.90;99.90;;;;;;5072824;28;19938;-78
2024/01/29 04:52:04;;;;;;;;;;;3.60;99.90;;;;;;5091272;28;19919;-78
2024/01/29 04:54:30;;;;;;;;;;;3.30;99.90;;;;;;5089429;28;20222;-77
2024/01/29 04:56:56;;;;;;;;;;;3.30;99.90;;;;;;5071293;28;19928;-78
2024/01/29 04:59:21;;;;;;;;;;;3.80;99.90;;;;;;5072597;28;20298;-78
2024/01/29 05:01:47;;;;;;;;;;;3.30;99.90;;;;;;5091233;28;20381;-78
2024/01/29 05:04:13;;;;;;;;;;;3.90;99.90;;;;;;5107363;27;19934;-78
2024/01/29 05:06:38;;;;;;;;;;;3.50;99.90;;;;;;5072952;28;19942;-77
2024/01/29 05:09:04;;;;;;;;;;;3.50;99.90;;;;;;5089980;28;19935;-78
2024/01/29 05:11:29;;;;;;;;;;;3.30;99.90;;;;;;5072968;28;20340;-78
2024/01/29 05:13:55;;;;;;;;;;;3.30;99.90;;;;;;5107949;27;20026;-78
2024/01/29 05:16:21;;;;;;;;;;;3.30;99.90;;;;;;5073087;28;20512;-77
2024/01/29 05:18:48;;;;;;;;;;;3.30;99.90;;;;;;5068469;28;20064;-78
2024/01/29 05:21:13;;;;;;;;;;;3.60;99.90;;;;;;5057693;28;20045;-77
2024/01/29 05:23:39;;;;;;;;;;;3.50;99.90;;;;;;5090578;28;20505;-78
2024/01/29 05:26:05;;;;;;;;;;;3.30;99.90;;;;;;5090870;28;19928;-78
2024/01/29 05:28:30;;;;;;;;;;;3.10;99.90;;;;;;5073784;28;19928;-78
2024/01/29 05:30:56;;;;;;;;;;;3.50;99.90;;;;;;5089653;28;19943;-78
2024/01/29 05:33:27;;;;;;;;;;;3.40;99.90;;;;;;5104606;28;19949;-77
2024/01/29 05:35:56;;;;;;;;;;;3.10;99.90;;;;;;5109020;28;20434;-77
2024/01/29 05:38:27;;;;;;;;;;;3.40;99.90;;;;;;5088764;28;19934;-78
2024/01/29 05:40:53;;;;;;;;;;;3.60;99.90;;;;;;5090738;28;19949;-78
2024/01/29 05:43:18;;;;;;;;;;;4.20;99.90;;;;;;5071217;28;20303;-78
2024/01/29 05:45:46;;;;;;;;;;;3.10;99.90;;;;;;5070057;28;19930;-78
2024/01/29 05:48:12;;;;;;;;;;;3.60;99.90;;;;;;5090874;28;20100;-78
2024/01/29 05:50:38;;;;;;;;;;;3.40;99.90;;;;;;5088759;28;19927;-78
2024/01/29 05:53:03;;;;;;;;;;;3.10;99.90;;;;;;5071427;28;19924;-78
2024/01/29 05:55:30;;;;;;;;;;;3.30;99.90;;;;;;5079836;28;20028;-78
2024/01/29 05:57:56;;;;;;;;;;;3.40;99.90;;;;;;5105263;27;20367;-78
2024/01/29 06:00:21;;;;;;;;;;;3.10;99.90;;;;;;5089782;28;19934;-78
2024/01/29 06:02:49;;;;;;;;;;;3.20;99.90;;;;;;5071387;28;19939;-78
2024/01/29 06:05:15;;;;;;;;;;;4.00;99.90;;;;;;5103402;28;19931;-78
2024/01/29 06:07:41;;;;;;;;;;;3.10;99.90;;;;;;5090766;28;20395;-78
2024/01/29 06:10:07;;;;;;;;;;;3.20;99.90;;;;;;5092139;28;20407;-78
2024/01/29 06:12:33;;;;;;;;;;;3.40;99.90;;;;;;5076256;28;19931;-77
2024/01/29 06:14:58;;;;;;;;;;;3.20;99.90;;;;;;5073959;28;20401;-78
2024/01/29 06:17:24;;;;;;;;;;;3.30;99.90;;;;;;5055662;28;19983;-78
2024/01/29 06:19:50;;;;;;;;;;;3.50;99.90;;;;;;5088403;28;19928;-78
2024/01/29 06:22:16;;;;;;;;;;;3.40;99.90;;;;;;5075888;28;20434;-77
2024/01/29 06:24:42;;;;;;;;;;;3.30;99.90;;;;;;5075037;28;20003;-77
2024/01/29 06:27:08;;;;;;;;;;;3.40;99.90;;;;;;5090344;28;20014;-80
2024/01/29 06:29:34;;;;;;;;;;;3.50;99.90;;;;;;5087581;28;19967;-79
2024/01/29 06:32:01;;;;;;;;;;;3.10;99.90;;;;;;5068371;28;19963;-81
2024/01/29 06:34:27;;;;;;;;;;;4.50;99.90;;;;;;5071725;28;19927;-80
2024/01/29 06:36:53;;;;;;;;;;;3.30;99.90;;;;;;5086997;28;20047;-80
2024/01/29 06:39:20;;;;;;;;;;;3.00;99.90;;;;;;5088093;28;19930;-77
2024/01/29 06:41:51;;;;;;;;;;;3.10;99.90;;;;;;5089436;28;19972;-76
2024/01/29 06:44:16;;;;;;;;;;;3.80;99.90;;;;;;5087469;28;20395;-76
2024/01/29 06:46:42;;;;;;;;;;;3.20;99.90;;;;;;5088783;28;19924;-77
2024/01/29 06:49:23;;;;;;;;;;;3.30;99.90;;;;;;5087838;28;19932;-76
2024/01/29 06:51:49;;;;;;;;;;;3.30;99.90;;;;;;5087664;27;19928;-77
2024/01/29 06:54:15;;;;;;;;;;;3.30;99.90;;;;;;5068715;28;19931;-80
2024/01/29 06:56:41;;;;;;;;;;;3.50;99.90;;;;;;5083721;28;20720;-80
2024/01/29 06:59:06;;;;;;;;;;;3.10;99.90;;;;;;5082102;28;19927;-83
2024/01/29 07:01:34;;;;;;;;;;;3.30;99.90;;;;;;5087578;27;19995;-83
2024/01/29 07:03:59;;;;;;;;;;;3.30;99.90;;;;;;5085798;28;19927;-79
2024/01/29 07:06:25;;;;;;;;;;;3.40;99.90;;;;;;5084511;28;20744;-82
2024/01/29 07:08:51;;;;;;;;;;;3.20;99.90;;;;;;5066874;28;19963;-80
2024/01/29 07:11:16;;;;;;;;;;;3.30;99.90;;;;;;5101376;28;20439;-81
2024/01/29 07:13:42;;;;;;;;;;;3.20;99.90;;;;;;5085524;28;20056;-77
2024/01/29 07:16:08;;;;;;;;;;;3.00;99.90;;;;;;5081867;28;20378;-78
2024/01/29 07:18:36;;;;;;;;;;;3.00;99.90;;;;;;5085203;28;19928;-83
2024/01/29 07:21:02;;;;;;;;;;;3.10;99.90;;;;;;5086638;28;19919;-83
2024/01/29 07:23:28;;;;;;;;;;;3.20;99.90;;;;;;5060165;27;19924;-82
2024/01/29 07:25:54;;;;;;;;;;;3.20;99.90;;;;;;5072704;28;19938;-82
2024/01/29 07:28:25;;;;;;;;;;;2.80;99.90;;;;;;5067725;28;19938;-84
2024/01/29 07:30:51;;;;;;;;;;;3.30;99.90;;;;;;5054568;28;19928;-82
2024/01/29 07:33:16;;;;;;;;;;;2.80;99.90;;;;;;5068821;28;20047;-81
2024/01/29 07:35:42;;;;;;;;;;;3.20;99.90;;;;;;5066691;28;19930;-83
2024/01/29 07:38:08;;;;;;;;;;;3.60;99.90;;;;;;5083432;28;19924;-82
2024/01/29 07:40:33;;;;;;;;;;;2.90;99.90;;;;;;5068237;28;20485;-81
2024/01/29 07:42:59;;;;;;;;;;;2.90;99.90;;;;;;5070877;28;20001;-80
2024/01/29 07:45:26;;;;;;;;;;;3.20;99.90;;;;;;5071378;28;20725;-79
2024/01/29 07:47:52;;;;;;;;;;;3.10;99.90;;;;;;5071982;28;20370;-83
2024/01/29 07:50:18;;;;;;;;;;;3.00;99.90;;;;;;5104898;28;19946;-75
2024/01/29 07:52:43;;;;;;;;;;;3.30;99.90;;;;;;5085931;28;19928;-82
2024/01/29 07:55:09;;;;;;;;;;;3.00;99.90;;;;;;5069110;27;19936;-78
2024/01/29 07:57:34;;;;;;;;;;;3.00;99.90;;;;;;5084720;28;19927;-78
2024/01/29 08:00:00;;;;;;;;;;;3.00;99.90;;;;;;5086717;28;19934;-78
2024/01/29 08:02:26;;;;;;;;;;;3.30;99.90;;;;;;5068626;28;20317;-78
2024/01/29 08:04:54;;;;;;;;;;;3.00;99.90;;;;;;5087751;28;19925;-82
2024/01/29 08:07:21;;;;;;;;;;;3.10;99.90;;;;;;5088724;28;19938;-80
2024/01/29 08:09:47;;;;;;;;;;;3.50;99.90;;;;;;5099814;28;20381;-81
2024/01/29 08:12:12;;;;;;;;;;;3.40;99.90;;;;;;5068446;28;19924;-79
2024/01/29 08:14:38;;;;;;;;;;;5.00;99.90;;;;;;5070492;28;20641;-77
2024/01/29 08:17:05;;;;;;;;;;;3.40;99.90;;;;;;5068393;28;20338;-77
2024/01/29 08:19:30;;;;;;;;;;;3.40;99.90;;;;;;5065130;28;20500;-78
2024/01/29 08:21:56;;;;;;;;;;;3.50;99.90;;;;;;5082232;28;19971;-78
2024/01/29 08:24:22;;;;;;;;;;;3.50;99.90;;;;;;5083787;28;19928;-77
2024/01/29 08:26:47;;;;;;;;;;;3.80;99.90;;;;;;5086614;28;19928;-77
2024/01/29 08:29:13;;;;;;;;;;;3.90;99.90;;;;;;5085042;28;19998;-78
2024/01/29 08:31:38;;;;;;;;;;;4.00;99.90;;;;;;5082733;28;19977;-77
2024/01/29 08:34:04;;;;;;;;;;;3.60;99.90;;;;;;5086720;28;20007;-79
2024/01/29 08:36:30;;;;;;;;;;;4.40;99.90;;;;;;5084298;28;19938;-77
2024/01/29 08:38:56;;;;;;;;;;;3.80;99.90;;;;;;5066334;28;19928;-76
2024/01/29 08:41:21;;;;;;;;;;;4.10;99.90;;;;;;5081464;28;19935;-76
2024/01/29 08:43:47;;;;;;;;;;;3.90;99.90;;;;;;5085146;28;19938;-77
2024/01/29 08:46:13;;;;;;;;;;;3.90;99.90;;;;;;5101529;28;19982;-78
2024/01/29 08:48:39;;;;;;;;;;;4.00;99.90;;;;;;5051112;28;20066;-78
2024/01/29 08:51:04;;;;;;;;;;;4.10;99.90;;;;;;5067457;28;19980;-78
2024/01/29 08:53:30;;;;;;;;;;;4.10;99.90;;;;;;5099292;28;20092;-78
2024/01/29 08:55:56;;;;;;;;;;;4.00;99.90;;;;;;5067640;28;20005;-78
2024/01/29 08:58:21;;;;;;;;;;;4.40;99.90;;;;;;5081510;28;19934;-77
2024/01/29 09:00:52;;;;;;;;;;;4.50;99.90;;;;;;5084367;28;19924;-77
2024/01/29 09:03:18;;;;;;;;;;;4.40;99.90;;;;;;5086054;27;20023;-77
2024/01/29 09:05:44;;;;;;;;;;;4.30;99.90;;;;;;5071994;28;20003;-77
2024/01/29 09:08:09;;;;;;;;;;;4.20;99.90;;;;;;5069685;28;19924;-77
2024/01/29 09:10:35;;;;;;;;;;;4.40;99.90;;;;;;5089231;28;19928;-78
2024/01/29 09:13:01;;;;;;;;;;;4.40;99.90;;;;;;5104098;28;20401;-77
2024/01/29 09:15:27;;;;;;;;;;;4.40;99.90;;;;;;5088310;28;19938;-78
2024/01/29 09:17:53;;;;;;;;;;;4.40;99.90;;;;;;5087025;27;20355;-79
2024/01/29 09:20:18;;;;;;;;;;;4.60;99.90;;;;;;5068653;28;19924;-78
2024/01/29 09:22:44;;;;;;;;;;;4.50;99.90;;;;;;5086068;27;19959;-78
2024/01/29 09:25:10;;;;;;;;;;;5.00;99.90;;;;;;5088191;28;20707;-77
2024/01/29 09:27:37;;;;;;;;;;;4.70;99.90;;;;;;5069623;28;20010;-78
2024/01/29 09:30:04;;;;;;;;;;;4.70;99.90;;;;;;5087196;28;19967;-77
2024/01/29 09:32:30;;;;;;;;;;;4.80;99.90;;;;;;5085734;27;20375;-76
2024/01/29 09:34:55;;;;;;;;;;;4.90;99.90;;;;;;5086327;28;19935;-74
2024/01/29 09:37:21;;;;;;;;;;;5.10;99.90;;;;;;5062725;27;20018;-78
2024/01/29 09:39:47;;;;;;;;;;;4.90;99.90;;;;;;5085151;28;19976;-76
2024/01/29 09:42:17;;;;;;;;;;;5.20;99.90;;;;;;5070005;28;19985;-80
2024/01/29 09:44:44;;;;;;;;;;;4.90;99.90;;;;;;5084948;28;19928;-80
2024/01/29 09:47:10;;;;;;;;;;;5.10;99.90;;;;;;5082992;28;19927;-79
2024/01/29 09:49:39;;;;;;;;;;;5.40;99.90;;;;;;5066855;28;19955;-79
2024/01/29 09:52:08;;;;;;;;;;;5.20;99.90;;;;;;5102030;28;20015;-79
2024/01/29 09:54:35;;;;;;;;;;;5.50;99.90;;;;;;5086519;28;19935;-83
2024/01/29 09:57:00;;;;;;;;;;;5.20;99.90;;;;;;5068216;28;20361;-82
2024/01/29 09:59:26;;;;;;;;;;;5.10;99.90;;;;;;5083625;28;19931;-81
2024/01/29 10:01:52;;;;;;;;;;;5.40;99.90;;;;;;5083828;27;19975;-82
2024/01/29 10:04:19;;;;;;;;;;;5.90;99.90;;;;;;5085066;28;19934;-81
2024/01/29 10:06:44;;;;;;;;;;;5.30;99.90;;;;;;5068899;27;20345;-80
2024/01/29 10:09:11;;;;;;;;;;;5.60;99.90;;;;;;5086512;28;20266;-81
2024/01/29 10:11:39;;;;;;;;;;;5.70;99.90;;;;;;5100889;27;19939;-78
2024/01/29 10:14:05;;;;;;;;;;;5.50;99.90;;;;;;5099707;27;19931;-81
2024/01/29 10:16:31;;;;;;;;;;;5.80;99.90;;;;;;5086434;28;19942;-81
2024/01/29 10:18:57;;;;;;;;;;;5.60;99.90;;;;;;5075847;28;19936;-81
2024/01/29 10:21:23;;;;;;;;;;;6.00;99.90;;;;;;5085037;28;20255;-79
2024/01/29 10:23:58;;;;;;;;;;;5.80;99.90;;;;;;5084714;28;19934;-77
2024/01/29 10:26:30;;;;;;;;;;;5.80;99.90;;;;;;5081963;28;20393;-81
2024/01/29 10:29:05;;;;;;;;;;;6.00;99.90;;;;;;5068973;28;19928;-78
2024/01/29 10:31:33;;;;;;;;;;;5.90;99.90;;;;;;5069991;28;19930;-80
2024/01/29 10:33:59;;;;;;;;;;;5.90;99.90;;;;;;5084530;28;19928;-82
2024/01/29 10:36:31;;;;;;;;;;;6.00;99.90;;;;;;5086394;28;19923;-79
2024/01/29 10:39:00;;;;;;;;;;;6.00;99.90;;;;;;5071217;28;19932;-77
2024/01/29 10:41:25;;;;;;;;;;;6.20;99.90;;;;;;5085778;28;19969;-79
2024/01/29 10:43:51;;;;;;;;;;;6.30;99.90;;;;;;5086475;27;19967;-77
2024/01/29 10:46:19;;;;;;;;;;;6.10;99.90;;;;;;5086593;28;19931;-77
2024/01/29 10:48:45;;;;;;;;;;;6.20;99.90;;;;;;5068692;28;19950;-82
2024/01/29 10:51:12;;;;;;;;;;;6.50;99.90;;;;;;5101261;27;19931;-79
2024/01/29 10:53:38;;;;;;;;;;;6.10;99.90;;;;;;5075861;28;19949;-77
2024/01/29 10:56:04;;;;;;;;;;;6.40;99.90;;;;;;5067303;27;19939;-76
2024/01/29 10:58:30;;;;;;;;;;;6.50;99.90;;;;;;5082666;28;19927;-82
2024/01/29 11:00:57;;;;;;;;;;;6.20;99.90;;;;;;5082337;28;19954;-78
2024/01/29 11:03:23;;;;;;;;;;;6.40;99.90;;;;;;5083905;27;19924;-77
2024/01/29 11:06:07;;;;;;;;;;;6.40;99.90;;;;;;5101667;28;20030;-74
2024/01/29 11:08:35;;;;;;;;;;;6.20;99.90;;;;;;5084104;28;19924;-76
2024/01/29 11:11:01;;;;;;;;;;;6.60;99.90;;;;;;5084127;28;20580;-75
2024/01/29 11:13:28;;;;;;;;;;;6.40;99.90;;;;;;5092093;28;20454;-77
2024/01/29 11:15:53;;;;;;;;;;;6.60;99.90;;;;;;5099403;28;20932;-77
2024/01/29 11:18:19;;;;;;;;;;;6.50;99.90;;;;;;5085046;28;19945;-77
2024/01/29 11:20:45;;;;;;;;;;;6.50;99.90;;;;;;5081383;28;19934;-81
2024/01/29 11:23:11;;;;;;;;;;;6.50;99.90;;;;;;5088677;28;19924;-81
2024/01/29 11:25:37;;;;;;;;;;;6.30;99.90;;;;;;5107501;28;19987;-83
2024/01/29 11:28:06;;;;;;;;;;;6.30;99.90;;;;;;5085895;28;19971;-82
2024/01/29 11:30:32;;;;;;;;;;;6.30;99.90;;;;;;5099825;27;20332;-82
2024/01/29 11:33:14;;;;;;;;;;;6.70;99.90;;;;;;5087420;28;19987;-84
2024/01/29 11:35:41;;;;;;;;;;;6.30;99.90;;;;;;5103592;28;19927;-83
2024/01/29 11:38:13;;;;;;;;;;;6.80;99.90;;;;;;5087144;28;19928;-82
2024/01/29 11:40:43;;;;;;;;;;;6.50;99.90;;;;;;5101486;28;19997;-82
2024/01/29 11:43:08;;;;;;;;;;;6.90;99.90;;;;;;5104248;28;19927;-79
2024/01/29 11:45:35;;;;;;;;;;;6.80;99.90;;;;;;5073751;28;20231;-84
2024/01/29 11:48:01;;;;;;;;;;;6.80;99.90;;;;;;5090098;28;20146;-84
2024/01/29 11:50:27;;;;;;;;;;;7.00;99.90;;;;;;5089280;28;19928;-81
2024/01/29 11:52:52;;;;;;;;;;;6.80;99.90;;;;;;5090925;28;19924;-81
2024/01/29 11:55:20;;;;;;;;;;;7.00;99.90;;;;;;5075402;28;19924;-82
2024/01/29 11:57:48;;;;;;;;;;;6.90;99.90;;;;;;5071513;28;20166;-82
2024/01/29 12:00:18;;;;;;;;;;;7.30;99.90;;;;;;5086076;28;20394;-82
2024/01/29 12:02:45;;;;;;;;;;;7.30;99.90;;;;;;5088889;28;19924;-82
2024/01/29 12:05:12;;;;;;;;;;;7.30;99.90;;;;;;5088924;28;20000;-87
2024/01/29 12:07:37;;;;;;;;;;;7.50;99.90;;;;;;5089487;28;19984;-83
2024/01/29 12:10:03;;;;;;;;;;;7.20;99.90;;;;;;5058746;28;20022;-77
2024/01/29 12:12:29;;;;;;;;;;;7.60;99.90;;;;;;5104015;28;19924;-78
2024/01/29 12:14:54;;;;;;;;;;;7.70;99.90;;;;;;5085633;28;20560;-77
2024/01/29 12:17:23;;;;;;;;;;;7.70;99.90;;;;;;5104052;28;19927;-78
2024/01/29 12:19:51;;;;;;;;;;;7.70;99.90;;;;;;5067978;28;20011;-76
2024/01/29 12:22:18;;;;;;;;;;;7.60;99.90;;;;;;5104780;28;19935;-77
2024/01/29 12:24:44;;;;;;;;;;;7.30;99.90;;;;;;5066508;28;19962;-77
2024/01/29 12:27:09;;;;;;;;;;;7.70;99.90;;;;;;5070773;28;19967;-77
2024/01/29 12:29:36;;;;;;;;;;;7.50;99.90;;;;;;5085025;28;19969;-78
2024/01/29 12:32:19;;;;;;;;;;;7.80;99.90;;;;;;5099410;28;19932;-78
2024/01/29 12:34:45;;;;;;;;;;;7.50;99.90;;;;;;5064372;28;19920;-77
2024/01/29 12:37:18;;;;;;;;;;;8.50;99.90;;;;;;5084978;28;19928;-76
2024/01/29 12:39:48;;;;;;;;;;;7.50;99.90;;;;;;5086011;27;19923;-76
2024/01/29 12:42:15;;;;;;;;;;;7.60;99.90;;;;;;5084763;28;20087;-75
2024/01/29 12:44:41;;;;;;;;;;;7.40;99.90;;;;;;5070951;28;19928;-76
2024/01/29 12:47:19;;;;;;;;;;;7.80;99.90;;;;;;5070843;28;20535;-77
2024/01/29 12:49:48;;;;;;;;;;;6.90;99.90;;;;;;5069206;28;20010;-77
2024/01/29 12:52:15;;;;;;;;;;;7.50;99.90;;;;;;5050626;27;19934;-76
2024/01/29 12:54:45;;;;;;;;;;;7.60;99.90;;;;;;5088730;28;19928;-77
2024/01/29 12:57:11;;;;;;;;;;;7.50;99.90;;;;;;5082686;28;20268;-77
2024/01/29 12:59:36;;;;;;;;;;;8.00;99.90;;;;;;5104185;27;20405;-77
2024/01/29 13:02:03;;;;;;;;;;;7.60;99.90;;;;;;5086834;28;19934;-78
2024/01/29 13:04:28;;;;;;;;;;;7.70;99.90;;;;;;5086297;28;19928;-77
2024/01/29 13:06:54;;;;;;;;;;;8.10;99.90;;;;;;5086072;28;19924;-77
2024/01/29 13:09:21;;;;;;;;;;;8.00;99.90;;;;;;5086128;27;19934;-77
2024/01/29 13:11:47;;;;;;;;;;;7.90;99.90;;;;;;5084160;28;20855;-77
2024/01/29 13:14:13;;;;;;;;;;;8.20;99.90;;;;;;5087620;28;19928;-77
2024/01/29 13:16:39;;;;;;;;;;;8.00;99.90;;;;;;5068567;28;19935;-77
2024/01/29 13:19:05;;;;;;;;;;;8.40;99.90;;;;;;5088416;28;19931;-77
2024/01/29 13:21:31;;;;;;;;;;;8.00;99.90;;;;;;5088097;28;20445;-76
2024/01/29 13:23:56;;;;;;;;;;;8.40;99.90;;;;;;5068450;28;20865;-78
2024/01/29 13:26:22;;;;;;;;;;;8.40;99.90;;;;;;5069916;28;19924;-77
2024/01/29 13:28:53;;;;;;;;;;;8.30;99.90;;;;;;5103918;28;20388;-78
2024/01/29 13:31:20;;;;;;;;;;;8.10;99.90;;;;;;5067025;28;19924;-77
2024/01/29 13:33:46;;;;;;;;;;;8.50;99.90;;;;;;5104942;28;19950;-76
2024/01/29 13:36:12;;;;;;;;;;;8.50;99.90;;;;;;5069379;28;20359;-76
2024/01/29 13:38:38;;;;;;;;;;;8.40;99.90;;;;;;5081210;28;19979;-77
2024/01/29 13:41:04;;;;;;;;;;;8.30;99.90;;;;;;5087545;27;20455;-77
2024/01/29 13:43:30;;;;;;;;;;;8.40;99.90;;;;;;5085571;28;19928;-76
2024/01/29 13:45:56;;;;;;;;;;;8.60;99.90;;;;;;5088428;28;19938;-77
2024/01/29 13:48:21;;;;;;;;;;;8.30;99.90;;;;;;5085718;28;19928;-77
2024/01/29 13:50:47;;;;;;;;;;;8.30;99.90;;;;;;5071595;27;19994;-77
2024/01/29 13:53:19;;;;;;;;;;;8.70;99.90;;;;;;5098840;27;19932;-75
2024/01/29 13:55:46;;;;;;;;;;;8.40;99.90;;;;;;5086470;28;19988;-83
2024/01/29 13:58:12;;;;;;;;;;;8.60;99.90;;;;;;5084761;28;20271;-78
2024/01/29 14:00:37;;;;;;;;;;;8.60;99.90;;;;;;5088294;28;19935;-75
2024/01/29 14:03:04;;;;;;;;;;;8.60;99.90;;;;;;5087201;28;20014;-75
2024/01/29 14:05:30;;;;;;;;;;;8.20;99.90;;;;;;5104911;27;19928;-75
2024/01/29 14:07:56;;;;;;;;;;;8.40;99.90;;;;;;5101697;28;19927;-75
2024/01/29 14:10:21;;;;;;;;;;;8.40;99.90;;;;;;5086898;27;19942;-76
2024/01/29 14:12:47;;;;;;;;;;;8.40;99.90;;;;;;5068946;28;19931;-76
2024/01/29 14:15:13;;;;;;;;;;;8.60;99.90;;;;;;5085231;28;20003;-76
2024/01/29 14:17:38;;;;;;;;;;;8.60;99.90;;;;;;5083038;28;19932;-75
2024/01/29 14:20:05;;;;;;;;;;;8.20;99.90;;;;;;5083383;28;20042;-79
2024/01/29 14:22:30;;;;;;;;;;;8.20;99.90;;;;;;5087929;28;19963;-75
2024/01/29 14:24:56;;;;;;;;;;;8.20;99.90;;;;;;5088293;28;20354;-75
2024/01/29 14:27:22;;;;;;;;;;;8.60;99.90;;;;;;5083645;28;19923;-75